sensor_id;sensor_type;location;lat;lon;timestamp;P1;durP1;ratioP1;P2;durP2;ratioP2
25153;SDS011;47555;51.038;6.280;2023-08-01T00:01:41;0.40;;;0.40;;
25153;SDS011;47555;51.038;6.280;2023-08-01T00:04:06;0.30;;;0.30;;
25153;SDS011;47555;51.038;6.280;2023-08-01T00:06:32;0.40;;;0.30;;
25153;SDS011;47555;51.038;6.280;2023-08-01T00:08:58;1.02;;;0.45;;
25153;SDS011;47555;51.038;6.280;2023-08-01T00:11:24;0.63;;;0.63;;
25153;SDS011;47555;51.038;6.280;2023-08-01T00:13:50;0.40;;;0.40;;
25153;SDS011;47555;51.038;6.280;2023-08-01T00:16:16;2.15;;;0.70;;
25153;SDS011;47555;51.038;6.280;2023-08-01T00:18:42;1.10;;;0.70;;
25153;SDS011;47555;51.038;6.280;2023-08-01T00:21:08;0.50;;;0.50;;
25153;SDS011;47555;51.038;6.280;2023-08-01T00:23:36;0.47;;;0.40;;
25153;SDS011;47555;51.038;6.280;2023-08-01T00:26:02;1.13;;;0.50;;
25153;SDS011;47555;51.038;6.280;2023-08-01T00:28:29;0.47;;;0.40;;
25153;SDS011;47555;51.038;6.280;2023-08-01T00:31:03;0.50;;;0.50;;
25153;SDS011;47555;51.038;6.280;2023-08-01T00:33:29;0.60;;;0.50;;
25153;SDS011;47555;51.038;6.280;2023-08-01T00:35:55;0.75;;;0.43;;
25153;SDS011;47555;51.038;6.280;2023-08-01T00:38:20;0.60;;;0.50;;
25153;SDS011;47555;51.038;6.280;2023-08-01T00:40:46;2.92;;;0.80;;
25153;SDS011;47555;51.038;6.280;2023-08-01T00:43:12;1.40;;;0.60;;
25153;SDS011;47555;51.038;6.280;2023-08-01T00:45:38;0.73;;;0.70;;
25153;SDS011;47555;51.038;6.280;2023-08-01T00:48:04;2.63;;;0.93;;
25153;SDS011;47555;51.038;6.280;2023-08-01T00:50:31;1.83;;;0.90;;
25153;SDS011;47555;51.038;6.280;2023-08-01T00:52:57;1.48;;;1.00;;
25153;SDS011;47555;51.038;6.280;2023-08-01T00:55:23;1.48;;;1.17;;
25153;SDS011;47555;51.038;6.280;2023-08-01T00:57:49;2.03;;;0.98;;
25153;SDS011;47555;51.038;6.280;2023-08-01T01:00:16;2.13;;;0.85;;
25153;SDS011;47555;51.038;6.280;2023-08-01T01:02:41;1.65;;;0.90;;
25153;SDS011;47555;51.038;6.280;2023-08-01T01:05:07;1.92;;;1.10;;
25153;SDS011;47555;51.038;6.280;2023-08-01T01:07:33;1.23;;;0.98;;
25153;SDS011;47555;51.038;6.280;2023-08-01T01:10:00;0.93;;;0.80;;
25153;SDS011;47555;51.038;6.280;2023-08-01T01:12:26;1.15;;;0.80;;
25153;SDS011;47555;51.038;6.280;2023-08-01T01:14:52;1.73;;;1.30;;
25153;SDS011;47555;51.038;6.280;2023-08-01T01:17:18;0.80;;;0.80;;
25153;SDS011;47555;51.038;6.280;2023-08-01T01:19:44;2.55;;;0.98;;
25153;SDS011;47555;51.038;6.280;2023-08-01T01:22:16;1.73;;;1.15;;
25153;SDS011;47555;51.038;6.280;2023-08-01T01:24:42;2.65;;;1.08;;
25153;SDS011;47555;51.038;6.280;2023-08-01T01:27:08;2.42;;;1.00;;
25153;SDS011;47555;51.038;6.280;2023-08-01T01:29:35;1.27;;;1.00;;
25153;SDS011;47555;51.038;6.280;2023-08-01T01:32:01;1.90;;;1.23;;
25153;SDS011;47555;51.038;6.280;2023-08-01T01:34:27;1.83;;;1.40;;
25153;SDS011;47555;51.038;6.280;2023-08-01T01:36:53;1.48;;;1.25;;
25153;SDS011;47555;51.038;6.280;2023-08-01T01:39:19;1.98;;;1.27;;
25153;SDS011;47555;51.038;6.280;2023-08-01T01:41:45;4.18;;;1.40;;
25153;SDS011;47555;51.038;6.280;2023-08-01T01:44:11;1.77;;;1.40;;
25153;SDS011;47555;51.038;6.280;2023-08-01T01:46:37;1.65;;;1.30;;
25153;SDS011;47555;51.038;6.280;2023-08-01T01:49:03;1.60;;;1.45;;
25153;SDS011;47555;51.038;6.280;2023-08-01T01:51:30;2.60;;;1.67;;
25153;SDS011;47555;51.038;6.280;2023-08-01T01:53:56;3.15;;;1.90;;
25153;SDS011;47555;51.038;6.280;2023-08-01T01:56:22;2.70;;;1.60;;
25153;SDS011;47555;51.038;6.280;2023-08-01T01:58:48;3.80;;;1.90;;
25153;SDS011;47555;51.038;6.280;2023-08-01T02:01:14;2.65;;;1.70;;
25153;SDS011;47555;51.038;6.280;2023-08-01T02:03:40;3.13;;;2.17;;
25153;SDS011;47555;51.038;6.280;2023-08-01T02:06:06;3.17;;;2.10;;
25153;SDS011;47555;51.038;6.280;2023-08-01T02:08:32;2.97;;;1.75;;
25153;SDS011;47555;51.038;6.280;2023-08-01T02:10:58;4.82;;;2.05;;
25153;SDS011;47555;51.038;6.280;2023-08-01T02:13:25;4.32;;;1.92;;
25153;SDS011;47555;51.038;6.280;2023-08-01T02:15:51;3.35;;;1.95;;
25153;SDS011;47555;51.038;6.280;2023-08-01T02:18:17;3.80;;;2.08;;
25153;SDS011;47555;51.038;6.280;2023-08-01T02:20:44;4.50;;;2.35;;
25153;SDS011;47555;51.038;6.280;2023-08-01T02:23:10;4.45;;;2.30;;
25153;SDS011;47555;51.038;6.280;2023-08-01T02:25:39;4.03;;;2.15;;
25153;SDS011;47555;51.038;6.280;2023-08-01T02:28:05;4.75;;;2.47;;
25153;SDS011;47555;51.038;6.280;2023-08-01T02:30:32;3.35;;;2.60;;
25153;SDS011;47555;51.038;6.280;2023-08-01T02:32:58;3.88;;;2.30;;
25153;SDS011;47555;51.038;6.280;2023-08-01T02:35:24;3.40;;;2.65;;
25153;SDS011;47555;51.038;6.280;2023-08-01T02:37:50;4.97;;;2.50;;
25153;SDS011;47555;51.038;6.280;2023-08-01T02:40:16;5.78;;;3.70;;
25153;SDS011;47555;51.038;6.280;2023-08-01T02:42:42;6.93;;;3.22;;
25153;SDS011;47555;51.038;6.280;2023-08-01T02:45:08;4.78;;;2.85;;
25153;SDS011;47555;51.038;6.280;2023-08-01T02:47:34;4.45;;;3.33;;
25153;SDS011;47555;51.038;6.280;2023-08-01T02:50:00;6.75;;;3.97;;
25153;SDS011;47555;51.038;6.280;2023-08-01T02:52:26;7.75;;;5.00;;
25153;SDS011;47555;51.038;6.280;2023-08-01T02:54:52;7.88;;;4.60;;
25153;SDS011;47555;51.038;6.280;2023-08-01T02:57:18;7.10;;;4.85;;
25153;SDS011;47555;51.038;6.280;2023-08-01T02:59:44;8.35;;;5.10;;
25153;SDS011;47555;51.038;6.280;2023-08-01T03:02:10;8.77;;;5.50;;
25153;SDS011;47555;51.038;6.280;2023-08-01T03:04:36;8.98;;;5.10;;
25153;SDS011;47555;51.038;6.280;2023-08-01T03:07:02;10.45;;;6.45;;
25153;SDS011;47555;51.038;6.280;2023-08-01T03:09:28;12.52;;;6.35;;
25153;SDS011;47555;51.038;6.280;2023-08-01T03:11:54;12.10;;;6.15;;
25153;SDS011;47555;51.038;6.280;2023-08-01T03:14:20;12.02;;;6.00;;
25153;SDS011;47555;51.038;6.280;2023-08-01T03:16:46;8.68;;;5.60;;
25153;SDS011;47555;51.038;6.280;2023-08-01T03:19:12;9.18;;;5.97;;
25153;SDS011;47555;51.038;6.280;2023-08-01T03:21:38;10.85;;;5.40;;
25153;SDS011;47555;51.038;6.280;2023-08-01T03:24:04;8.43;;;5.57;;
25153;SDS011;47555;51.038;6.280;2023-08-01T03:26:33;10.90;;;6.07;;
25153;SDS011;47555;51.038;6.280;2023-08-01T03:28:59;9.45;;;5.88;;
25153;SDS011;47555;51.038;6.280;2023-08-01T03:31:25;11.75;;;6.22;;
25153;SDS011;47555;51.038;6.280;2023-08-01T03:33:51;11.68;;;5.85;;
25153;SDS011;47555;51.038;6.280;2023-08-01T03:36:17;12.25;;;4.95;;
25153;SDS011;47555;51.038;6.280;2023-08-01T03:38:43;14.82;;;6.22;;
25153;SDS011;47555;51.038;6.280;2023-08-01T03:41:09;8.82;;;5.05;;
25153;SDS011;47555;51.038;6.280;2023-08-01T03:43:35;10.30;;;5.10;;
25153;SDS011;47555;51.038;6.280;2023-08-01T03:46:01;8.65;;;5.13;;
25153;SDS011;47555;51.038;6.280;2023-08-01T03:48:27;11.40;;;5.63;;
25153;SDS011;47555;51.038;6.280;2023-08-01T03:50:53;9.25;;;5.22;;
25153;SDS011;47555;51.038;6.280;2023-08-01T03:53:19;8.30;;;5.00;;
25153;SDS011;47555;51.038;6.280;2023-08-01T03:55:46;11.13;;;5.45;;
25153;SDS011;47555;51.038;6.280;2023-08-01T03:58:13;8.38;;;5.85;;
25153;SDS011;47555;51.038;6.280;2023-08-01T04:00:39;9.50;;;5.70;;
25153;SDS011;47555;51.038;6.280;2023-08-01T04:03:05;11.23;;;6.15;;
25153;SDS011;47555;51.038;6.280;2023-08-01T04:05:31;12.40;;;5.50;;
25153;SDS011;47555;51.038;6.280;2023-08-01T04:07:57;10.23;;;5.60;;
25153;SDS011;47555;51.038;6.280;2023-08-01T04:10:23;11.50;;;6.00;;
25153;SDS011;47555;51.038;6.280;2023-08-01T04:12:49;10.57;;;6.22;;
25153;SDS011;47555;51.038;6.280;2023-08-01T04:15:15;9.52;;;5.38;;
25153;SDS011;47555;51.038;6.280;2023-08-01T04:17:41;10.45;;;6.22;;
25153;SDS011;47555;51.038;6.280;2023-08-01T04:20:07;10.18;;;5.55;;
25153;SDS011;47555;51.038;6.280;2023-08-01T04:22:33;12.23;;;5.55;;
25153;SDS011;47555;51.038;6.280;2023-08-01T04:25:00;12.77;;;5.82;;
25153;SDS011;47555;51.038;6.280;2023-08-01T04:27:26;10.85;;;5.90;;
25153;SDS011;47555;51.038;6.280;2023-08-01T04:29:52;9.85;;;5.05;;
25153;SDS011;47555;51.038;6.280;2023-08-01T04:32:19;10.00;;;6.20;;
25153;SDS011;47555;51.038;6.280;2023-08-01T04:34:45;9.77;;;5.78;;
25153;SDS011;47555;51.038;6.280;2023-08-01T04:37:11;9.63;;;5.32;;
25153;SDS011;47555;51.038;6.280;2023-08-01T04:39:37;9.50;;;5.72;;
25153;SDS011;47555;51.038;6.280;2023-08-01T04:42:03;12.43;;;5.97;;
25153;SDS011;47555;51.038;6.280;2023-08-01T04:44:29;10.23;;;5.30;;
25153;SDS011;47555;51.038;6.280;2023-08-01T04:46:55;10.43;;;6.45;;
25153;SDS011;47555;51.038;6.280;2023-08-01T04:49:21;11.48;;;6.00;;
25153;SDS011;47555;51.038;6.280;2023-08-01T04:51:49;10.85;;;5.55;;
25153;SDS011;47555;51.038;6.280;2023-08-01T04:54:15;9.85;;;5.82;;
25153;SDS011;47555;51.038;6.280;2023-08-01T04:56:41;9.80;;;5.82;;
25153;SDS011;47555;51.038;6.280;2023-08-01T04:59:07;10.48;;;5.57;;
25153;SDS011;47555;51.038;6.280;2023-08-01T05:01:33;13.00;;;6.00;;
25153;SDS011;47555;51.038;6.280;2023-08-01T05:03:59;9.95;;;5.15;;
25153;SDS011;47555;51.038;6.280;2023-08-01T05:06:25;12.00;;;5.68;;
25153;SDS011;47555;51.038;6.280;2023-08-01T05:08:52;12.85;;;6.40;;
25153;SDS011;47555;51.038;6.280;2023-08-01T05:11:18;12.57;;;5.90;;
25153;SDS011;47555;51.038;6.280;2023-08-01T05:13:44;10.05;;;5.72;;
25153;SDS011;47555;51.038;6.280;2023-08-01T05:16:10;9.07;;;5.85;;
25153;SDS011;47555;51.038;6.280;2023-08-01T05:18:36;8.85;;;5.68;;
25153;SDS011;47555;51.038;6.280;2023-08-01T05:21:02;11.20;;;5.68;;
25153;SDS011;47555;51.038;6.280;2023-08-01T05:23:28;12.48;;;5.43;;
25153;SDS011;47555;51.038;6.280;2023-08-01T05:25:54;10.05;;;5.07;;
25153;SDS011;47555;51.038;6.280;2023-08-01T05:28:20;8.73;;;5.18;;
25153;SDS011;47555;51.038;6.280;2023-08-01T05:30:46;12.40;;;5.15;;
25153;SDS011;47555;51.038;6.280;2023-08-01T05:33:12;10.93;;;5.55;;
25153;SDS011;47555;51.038;6.280;2023-08-01T05:35:38;15.18;;;5.68;;
25153;SDS011;47555;51.038;6.280;2023-08-01T05:38:04;8.95;;;5.68;;
25153;SDS011;47555;51.038;6.280;2023-08-01T05:40:31;10.50;;;5.75;;
25153;SDS011;47555;51.038;6.280;2023-08-01T05:42:57;8.65;;;5.13;;
25153;SDS011;47555;51.038;6.280;2023-08-01T05:45:23;10.20;;;4.88;;
25153;SDS011;47555;51.038;6.280;2023-08-01T05:47:49;9.48;;;5.35;;
25153;SDS011;47555;51.038;6.280;2023-08-01T05:50:15;14.38;;;6.28;;
25153;SDS011;47555;51.038;6.280;2023-08-01T05:52:41;9.75;;;5.55;;
25153;SDS011;47555;51.038;6.280;2023-08-01T05:55:07;12.15;;;5.25;;
25153;SDS011;47555;51.038;6.280;2023-08-01T05:57:33;10.95;;;4.97;;
25153;SDS011;47555;51.038;6.280;2023-08-01T05:59:59;11.35;;;5.53;;
25153;SDS011;47555;51.038;6.280;2023-08-01T06:02:25;10.65;;;4.57;;
25153;SDS011;47555;51.038;6.280;2023-08-01T06:04:51;13.10;;;5.65;;
25153;SDS011;47555;51.038;6.280;2023-08-01T06:07:17;11.75;;;6.13;;
25153;SDS011;47555;51.038;6.280;2023-08-01T06:09:47;14.00;;;5.28;;
25153;SDS011;47555;51.038;6.280;2023-08-01T06:12:14;10.48;;;5.57;;
25153;SDS011;47555;51.038;6.280;2023-08-01T06:14:39;10.70;;;5.10;;
25153;SDS011;47555;51.038;6.280;2023-08-01T06:17:05;11.45;;;5.50;;
25153;SDS011;47555;51.038;6.280;2023-08-01T06:19:31;10.88;;;5.68;;
25153;SDS011;47555;51.038;6.280;2023-08-01T06:21:57;12.25;;;6.28;;
25153;SDS011;47555;51.038;6.280;2023-08-01T06:24:25;15.07;;;5.95;;
25153;SDS011;47555;51.038;6.280;2023-08-01T06:26:51;10.95;;;6.03;;
25153;SDS011;47555;51.038;6.280;2023-08-01T06:29:17;13.40;;;6.70;;
25153;SDS011;47555;51.038;6.280;2023-08-01T06:31:43;11.93;;;6.80;;
25153;SDS011;47555;51.038;6.280;2023-08-01T06:34:08;11.60;;;6.57;;
25153;SDS011;47555;51.038;6.280;2023-08-01T06:36:34;10.73;;;6.47;;
25153;SDS011;47555;51.038;6.280;2023-08-01T06:39:00;13.45;;;6.90;;
25153;SDS011;47555;51.038;6.280;2023-08-01T06:41:27;14.10;;;6.63;;
25153;SDS011;47555;51.038;6.280;2023-08-01T06:43:53;14.82;;;5.80;;
25153;SDS011;47555;51.038;6.280;2023-08-01T06:46:19;12.18;;;6.97;;
25153;SDS011;47555;51.038;6.280;2023-08-01T06:48:44;11.55;;;6.68;;
25153;SDS011;47555;51.038;6.280;2023-08-01T06:51:10;11.30;;;6.30;;
25153;SDS011;47555;51.038;6.280;2023-08-01T06:53:36;11.02;;;6.60;;
25153;SDS011;47555;51.038;6.280;2023-08-01T06:56:02;10.98;;;6.10;;
25153;SDS011;47555;51.038;6.280;2023-08-01T06:58:28;11.20;;;5.70;;
25153;SDS011;47555;51.038;6.280;2023-08-01T07:00:57;14.05;;;7.05;;
25153;SDS011;47555;51.038;6.280;2023-08-01T07:03:23;10.98;;;5.85;;
25153;SDS011;47555;51.038;6.280;2023-08-01T07:05:49;12.27;;;6.07;;
25153;SDS011;47555;51.038;6.280;2023-08-01T07:08:15;8.07;;;5.25;;
25153;SDS011;47555;51.038;6.280;2023-08-01T07:10:41;9.82;;;5.85;;
25153;SDS011;47555;51.038;6.280;2023-08-01T07:13:07;11.75;;;5.47;;
25153;SDS011;47555;51.038;6.280;2023-08-01T07:15:36;11.95;;;5.85;;
25153;SDS011;47555;51.038;6.280;2023-08-01T07:18:02;14.00;;;5.70;;
25153;SDS011;47555;51.038;6.280;2023-08-01T07:20:28;11.02;;;5.00;;
25153;SDS011;47555;51.038;6.280;2023-08-01T07:22:54;11.25;;;5.65;;
25153;SDS011;47555;51.038;6.280;2023-08-01T07:25:20;12.32;;;5.65;;
25153;SDS011;47555;51.038;6.280;2023-08-01T07:27:47;10.40;;;5.35;;
25153;SDS011;47555;51.038;6.280;2023-08-01T07:30:13;9.80;;;5.45;;
25153;SDS011;47555;51.038;6.280;2023-08-01T07:32:39;11.60;;;4.90;;
25153;SDS011;47555;51.038;6.280;2023-08-01T07:35:07;9.23;;;4.60;;
25153;SDS011;47555;51.038;6.280;2023-08-01T07:37:33;10.80;;;4.90;;
25153;SDS011;47555;51.038;6.280;2023-08-01T07:39:59;10.30;;;5.30;;
25153;SDS011;47555;51.038;6.280;2023-08-01T07:42:25;9.32;;;4.85;;
25153;SDS011;47555;51.038;6.280;2023-08-01T07:44:51;11.80;;;5.60;;
25153;SDS011;47555;51.038;6.280;2023-08-01T07:47:17;6.80;;;4.90;;
25153;SDS011;47555;51.038;6.280;2023-08-01T07:49:43;11.65;;;4.95;;
25153;SDS011;47555;51.038;6.280;2023-08-01T07:52:09;7.72;;;4.68;;
25153;SDS011;47555;51.038;6.280;2023-08-01T07:54:35;11.25;;;5.57;;
25153;SDS011;47555;51.038;6.280;2023-08-01T07:57:01;11.70;;;4.50;;
25153;SDS011;47555;51.038;6.280;2023-08-01T07:59:27;14.20;;;4.97;;
25153;SDS011;47555;51.038;6.280;2023-08-01T08:01:53;9.63;;;4.82;;
25153;SDS011;47555;51.038;6.280;2023-08-01T08:04:19;9.88;;;5.03;;
25153;SDS011;47555;51.038;6.280;2023-08-01T08:06:45;8.68;;;4.90;;
25153;SDS011;47555;51.038;6.280;2023-08-01T08:09:11;8.13;;;4.60;;
25153;SDS011;47555;51.038;6.280;2023-08-01T08:11:37;12.75;;;5.78;;
25153;SDS011;47555;51.038;6.280;2023-08-01T08:14:03;10.88;;;4.50;;
25153;SDS011;47555;51.038;6.280;2023-08-01T08:16:29;11.15;;;5.20;;
25153;SDS011;47555;51.038;6.280;2023-08-01T08:18:55;12.63;;;5.50;;
25153;SDS011;47555;51.038;6.280;2023-08-01T08:21:21;10.30;;;4.82;;
25153;SDS011;47555;51.038;6.280;2023-08-01T08:23:47;11.52;;;4.78;;
25153;SDS011;47555;51.038;6.280;2023-08-01T08:26:13;6.68;;;4.50;;
25153;SDS011;47555;51.038;6.280;2023-08-01T08:28:39;8.27;;;4.40;;
25153;SDS011;47555;51.038;6.280;2023-08-01T08:31:07;7.63;;;4.20;;
25153;SDS011;47555;51.038;6.280;2023-08-01T08:33:33;7.70;;;4.40;;
25153;SDS011;47555;51.038;6.280;2023-08-01T08:35:59;10.88;;;4.95;;
25153;SDS011;47555;51.038;6.280;2023-08-01T08:38:25;10.35;;;4.82;;
25153;SDS011;47555;51.038;6.280;2023-08-01T08:41:10;9.70;;;4.38;;
25153;SDS011;47555;51.038;6.280;2023-08-01T08:43:36;8.43;;;3.90;;
25153;SDS011;47555;51.038;6.280;2023-08-01T08:46:03;8.85;;;4.43;;
25153;SDS011;47555;51.038;6.280;2023-08-01T08:48:29;7.93;;;4.00;;
25153;SDS011;47555;51.038;6.280;2023-08-01T08:50:57;10.13;;;4.85;;
25153;SDS011;47555;51.038;6.280;2023-08-01T08:53:24;8.07;;;4.40;;
25153;SDS011;47555;51.038;6.280;2023-08-01T08:55:50;6.25;;;4.22;;
25153;SDS011;47555;51.038;6.280;2023-08-01T08:58:16;10.02;;;4.60;;
25153;SDS011;47555;51.038;6.280;2023-08-01T09:00:42;8.23;;;4.03;;
25153;SDS011;47555;51.038;6.280;2023-08-01T09:03:09;10.55;;;4.03;;
25153;SDS011;47555;51.038;6.280;2023-08-01T09:05:37;5.47;;;4.13;;
25153;SDS011;47555;51.038;6.280;2023-08-01T09:08:07;7.38;;;4.28;;
25153;SDS011;47555;51.038;6.280;2023-08-01T09:10:35;7.55;;;4.25;;
25153;SDS011;47555;51.038;6.280;2023-08-01T09:13:01;7.70;;;4.63;;
25153;SDS011;47555;51.038;6.280;2023-08-01T09:15:27;9.25;;;4.82;;
25153;SDS011;47555;51.038;6.280;2023-08-01T09:17:54;8.35;;;4.60;;
25153;SDS011;47555;51.038;6.280;2023-08-01T09:20:28;6.15;;;3.88;;
25153;SDS011;47555;51.038;6.280;2023-08-01T09:22:54;5.30;;;3.50;;
25153;SDS011;47555;51.038;6.280;2023-08-01T09:25:30;5.97;;;4.00;;
25153;SDS011;47555;51.038;6.280;2023-08-01T09:27:56;7.70;;;3.83;;
25153;SDS011;47555;51.038;6.280;2023-08-01T09:30:22;8.70;;;3.97;;
25153;SDS011;47555;51.038;6.280;2023-08-01T09:32:52;7.05;;;3.60;;
25153;SDS011;47555;51.038;6.280;2023-08-01T09:35:18;8.73;;;3.90;;
25153;SDS011;47555;51.038;6.280;2023-08-01T09:37:44;7.93;;;3.65;;
25153;SDS011;47555;51.038;6.280;2023-08-01T09:40:10;8.50;;;3.60;;
25153;SDS011;47555;51.038;6.280;2023-08-01T09:42:44;6.80;;;3.88;;
25153;SDS011;47555;51.038;6.280;2023-08-01T09:47:40;7.97;;;3.67;;
25153;SDS011;47555;51.038;6.280;2023-08-01T09:50:06;8.07;;;4.28;;
25153;SDS011;47555;51.038;6.280;2023-08-01T09:52:32;7.00;;;3.90;;
25153;SDS011;47555;51.038;6.280;2023-08-01T09:54:58;8.95;;;4.72;;
25153;SDS011;47555;51.038;6.280;2023-08-01T09:57:26;9.55;;;3.70;;
25153;SDS011;47555;51.038;6.280;2023-08-01T09:59:55;7.78;;;3.88;;
25153;SDS011;47555;51.038;6.280;2023-08-01T10:02:22;4.93;;;3.28;;
25153;SDS011;47555;51.038;6.280;2023-08-01T10:04:49;9.13;;;3.75;;
25153;SDS011;47555;51.038;6.280;2023-08-01T10:07:17;7.60;;;3.88;;
25153;SDS011;47555;51.038;6.280;2023-08-01T10:09:46;6.10;;;3.50;;
25153;SDS011;47555;51.038;6.280;2023-08-01T10:12:13;8.10;;;3.45;;
25153;SDS011;47555;51.038;6.280;2023-08-01T10:14:40;6.18;;;3.50;;
25153;SDS011;47555;51.038;6.280;2023-08-01T10:17:07;6.32;;;3.28;;
25153;SDS011;47555;51.038;6.280;2023-08-01T10:19:33;6.43;;;3.22;;
25153;SDS011;47555;51.038;6.280;2023-08-01T10:21:59;7.60;;;3.30;;
25153;SDS011;47555;51.038;6.280;2023-08-01T10:24:26;5.47;;;2.90;;
25153;SDS011;47555;51.038;6.280;2023-08-01T10:26:53;7.53;;;3.65;;
25153;SDS011;47555;51.038;6.280;2023-08-01T10:29:19;5.32;;;3.38;;
25153;SDS011;47555;51.038;6.280;2023-08-01T10:31:51;7.00;;;3.40;;
25153;SDS011;47555;51.038;6.280;2023-08-01T10:34:17;4.20;;;3.00;;
25153;SDS011;47555;51.038;6.280;2023-08-01T10:36:55;3.90;;;3.05;;
25153;SDS011;47555;51.038;6.280;2023-08-01T10:39:22;4.78;;;2.83;;
25153;SDS011;47555;51.038;6.280;2023-08-01T10:41:56;7.50;;;3.30;;
25153;SDS011;47555;51.038;6.280;2023-08-01T10:44:22;4.85;;;2.70;;
25153;SDS011;47555;51.038;6.280;2023-08-01T10:46:48;7.38;;;3.15;;
25153;SDS011;47555;51.038;6.280;2023-08-01T10:49:14;4.93;;;3.00;;
25153;SDS011;47555;51.038;6.280;2023-08-01T10:51:41;6.90;;;3.03;;
25153;SDS011;47555;51.038;6.280;2023-08-01T10:54:07;5.25;;;3.47;;
25153;SDS011;47555;51.038;6.280;2023-08-01T10:56:44;7.13;;;3.33;;
25153;SDS011;47555;51.038;6.280;2023-08-01T10:59:11;6.90;;;2.95;;
25153;SDS011;47555;51.038;6.280;2023-08-01T11:01:44;3.55;;;2.70;;
25153;SDS011;47555;51.038;6.280;2023-08-01T11:04:14;6.18;;;2.70;;
25153;SDS011;47555;51.038;6.280;2023-08-01T11:06:44;5.78;;;2.90;;
25153;SDS011;47555;51.038;6.280;2023-08-01T11:11:43;7.28;;;2.80;;
25153;SDS011;47555;51.038;6.280;2023-08-01T11:14:09;4.85;;;3.20;;
25153;SDS011;47555;51.038;6.280;2023-08-01T11:16:37;7.70;;;3.33;;
25153;SDS011;47555;51.038;6.280;2023-08-01T11:19:03;4.50;;;2.85;;
25153;SDS011;47555;51.038;6.280;2023-08-01T11:21:29;6.15;;;3.08;;
25153;SDS011;47555;51.038;6.280;2023-08-01T11:23:55;5.22;;;3.38;;
25153;SDS011;47555;51.038;6.280;2023-08-01T11:26:22;6.40;;;3.10;;
25153;SDS011;47555;51.038;6.280;2023-08-01T11:28:48;6.43;;;3.20;;
25153;SDS011;47555;51.038;6.280;2023-08-01T11:31:14;5.05;;;2.50;;
25153;SDS011;47555;51.038;6.280;2023-08-01T11:33:40;6.38;;;2.70;;
25153;SDS011;47555;51.038;6.280;2023-08-01T11:36:06;5.75;;;2.75;;
25153;SDS011;47555;51.038;6.280;2023-08-01T11:38:34;5.95;;;2.53;;
25153;SDS011;47555;51.038;6.280;2023-08-01T11:41:00;5.03;;;2.60;;
25153;SDS011;47555;51.038;6.280;2023-08-01T11:43:37;6.97;;;3.00;;
25153;SDS011;47555;51.038;6.280;2023-08-01T11:46:03;5.53;;;2.60;;
25153;SDS011;47555;51.038;6.280;2023-08-01T11:48:29;4.15;;;2.47;;
25153;SDS011;47555;51.038;6.280;2023-08-01T11:50:58;8.60;;;2.53;;
25153;SDS011;47555;51.038;6.280;2023-08-01T11:53:24;5.93;;;2.35;;
25153;SDS011;47555;51.038;6.280;2023-08-01T11:55:50;4.40;;;2.92;;
25153;SDS011;47555;51.038;6.280;2023-08-01T11:58:40;8.52;;;3.70;;
25153;SDS011;47555;51.038;6.280;2023-08-01T12:01:04;5.60;;;3.47;;
25153;SDS011;47555;51.038;6.280;2023-08-01T12:03:31;6.43;;;3.30;;
25153;SDS011;47555;51.038;6.280;2023-08-01T12:06:05;6.70;;;4.03;;
25153;SDS011;47555;51.038;6.280;2023-08-01T12:08:33;5.30;;;3.40;;
25153;SDS011;47555;51.038;6.280;2023-08-01T12:11:00;9.18;;;4.10;;
25153;SDS011;47555;51.038;6.280;2023-08-01T12:13:26;5.88;;;3.55;;
25153;SDS011;47555;51.038;6.280;2023-08-01T12:15:53;7.07;;;3.53;;
25153;SDS011;47555;51.038;6.280;2023-08-01T12:18:27;4.30;;;3.08;;
25153;SDS011;47555;51.038;6.280;2023-08-01T12:20:53;5.00;;;3.38;;
25153;SDS011;47555;51.038;6.280;2023-08-01T12:23:19;4.78;;;3.28;;
25153;SDS011;47555;51.038;6.280;2023-08-01T12:25:46;4.45;;;3.30;;
25153;SDS011;47555;51.038;6.280;2023-08-01T12:28:13;5.88;;;3.40;;
25153;SDS011;47555;51.038;6.280;2023-08-01T12:30:39;5.88;;;3.70;;
25153;SDS011;47555;51.038;6.280;2023-08-01T12:33:09;5.93;;;3.42;;
25153;SDS011;47555;51.038;6.280;2023-08-01T12:35:38;6.20;;;3.60;;
25153;SDS011;47555;51.038;6.280;2023-08-01T12:38:04;5.45;;;3.30;;
25153;SDS011;47555;51.038;6.280;2023-08-01T12:40:30;6.47;;;3.67;;
25153;SDS011;47555;51.038;6.280;2023-08-01T12:42:56;7.82;;;3.78;;
25153;SDS011;47555;51.038;6.280;2023-08-01T12:45:22;4.85;;;3.58;;
25153;SDS011;47555;51.038;6.280;2023-08-01T12:47:48;6.07;;;3.30;;
25153;SDS011;47555;51.038;6.280;2023-08-01T12:50:14;5.38;;;2.88;;
25153;SDS011;47555;51.038;6.280;2023-08-01T12:52:40;4.85;;;2.95;;
25153;SDS011;47555;51.038;6.280;2023-08-01T12:55:06;5.32;;;2.53;;
25153;SDS011;47555;51.038;6.280;2023-08-01T12:57:33;5.15;;;2.70;;
25153;SDS011;47555;51.038;6.280;2023-08-01T12:59:59;4.15;;;2.60;;
25153;SDS011;47555;51.038;6.280;2023-08-01T13:02:26;4.38;;;2.60;;
25153;SDS011;47555;51.038;6.280;2023-08-01T13:04:52;4.75;;;2.80;;
25153;SDS011;47555;51.038;6.280;2023-08-01T13:07:18;4.15;;;2.40;;
25153;SDS011;47555;51.038;6.280;2023-08-01T13:09:44;4.72;;;2.88;;
25153;SDS011;47555;51.038;6.280;2023-08-01T13:12:10;4.90;;;2.65;;
25153;SDS011;47555;51.038;6.280;2023-08-01T13:14:36;4.75;;;2.78;;
25153;SDS011;47555;51.038;6.280;2023-08-01T13:17:02;5.85;;;2.80;;
25153;SDS011;47555;51.038;6.280;2023-08-01T13:19:28;5.57;;;2.72;;
25153;SDS011;47555;51.038;6.280;2023-08-01T13:21:54;5.38;;;2.50;;
25153;SDS011;47555;51.038;6.280;2023-08-01T13:24:20;3.97;;;2.70;;
25153;SDS011;47555;51.038;6.280;2023-08-01T13:26:46;5.47;;;2.85;;
25153;SDS011;47555;51.038;6.280;2023-08-01T13:29:12;4.03;;;2.92;;
25153;SDS011;47555;51.038;6.280;2023-08-01T13:31:38;4.82;;;3.10;;
25153;SDS011;47555;51.038;6.280;2023-08-01T13:34:04;3.55;;;2.78;;
25153;SDS011;47555;51.038;6.280;2023-08-01T13:36:30;6.32;;;3.42;;
25153;SDS011;47555;51.038;6.280;2023-08-01T13:38:56;4.18;;;3.17;;
25153;SDS011;47555;51.038;6.280;2023-08-01T13:41:22;5.63;;;2.95;;
25153;SDS011;47555;51.038;6.280;2023-08-01T13:43:48;5.82;;;3.30;;
25153;SDS011;47555;51.038;6.280;2023-08-01T13:46:15;4.20;;;3.40;;
25153;SDS011;47555;51.038;6.280;2023-08-01T13:48:42;6.40;;;3.47;;
25153;SDS011;47555;51.038;6.280;2023-08-01T13:51:08;5.20;;;3.35;;
25153;SDS011;47555;51.038;6.280;2023-08-01T13:53:34;4.88;;;3.17;;
25153;SDS011;47555;51.038;6.280;2023-08-01T13:56:05;6.07;;;3.37;;
25153;SDS011;47555;51.038;6.280;2023-08-01T13:58:31;4.18;;;2.92;;
25153;SDS011;47555;51.038;6.280;2023-08-01T14:01:07;6.60;;;4.55;;
25153;SDS011;47555;51.038;6.280;2023-08-01T14:03:34;5.00;;;3.35;;
25153;SDS011;47555;51.038;6.280;2023-08-01T14:06:04;4.97;;;3.15;;
25153;SDS011;47555;51.038;6.280;2023-08-01T14:08:30;5.28;;;2.70;;
25153;SDS011;47555;51.038;6.280;2023-08-01T14:10:56;4.15;;;2.90;;
25153;SDS011;47555;51.038;6.280;2023-08-01T14:13:22;3.47;;;2.53;;
25153;SDS011;47555;51.038;6.280;2023-08-01T14:15:51;3.75;;;2.50;;
25153;SDS011;47555;51.038;6.280;2023-08-01T14:18:17;4.85;;;2.90;;
25153;SDS011;47555;51.038;6.280;2023-08-01T14:20:43;4.95;;;2.63;;
25153;SDS011;47555;51.038;6.280;2023-08-01T14:23:09;5.03;;;2.60;;
25153;SDS011;47555;51.038;6.280;2023-08-01T14:25:35;5.78;;;2.13;;
25153;SDS011;47555;51.038;6.280;2023-08-01T14:28:01;3.03;;;2.50;;
25153;SDS011;47555;51.038;6.280;2023-08-01T14:30:27;3.92;;;2.13;;
25153;SDS011;47555;51.038;6.280;2023-08-01T14:33:00;4.75;;;2.25;;
25153;SDS011;47555;51.038;6.280;2023-08-01T14:35:26;3.30;;;2.25;;
25153;SDS011;47555;51.038;6.280;2023-08-01T14:37:52;4.82;;;2.53;;
25153;SDS011;47555;51.038;6.280;2023-08-01T14:40:18;3.83;;;2.25;;
25153;SDS011;47555;51.038;6.280;2023-08-01T14:42:46;4.18;;;2.38;;
25153;SDS011;47555;51.038;6.280;2023-08-01T14:45:12;6.47;;;2.15;;